createdAt,value
2019-01-19T00:01:57.142Z,96.70
2019-01-19T00:04:45.159Z,96.60
2019-01-19T00:08:03.694Z,96.80
2019-01-19T00:11:27.860Z,96.60
2019-01-19T00:14:22.586Z,96.70
2019-01-19T00:17:53.053Z,96.60
2019-01-19T00:23:50.852Z,96.70
2019-01-19T00:26:45.283Z,96.90
2019-01-19T00:29:41.098Z,96.90
2019-01-19T00:32:40.415Z,97.00
2019-01-19T00:35:39.607Z,96.80
2019-01-19T00:38:31.662Z,96.70
2019-01-19T00:41:17.982Z,96.90
2019-01-19T00:44:01.367Z,96.80
2019-01-19T00:47:04.340Z,96.80
2019-01-19T00:49:46.775Z,96.70
2019-01-19T00:52:37.079Z,96.70
2019-01-19T00:55:51.824Z,96.80
2019-01-19T00:59:05.009Z,96.80
2019-01-19T01:02:03.965Z,96.70
2019-01-19T01:04:58.707Z,96.70
2019-01-19T01:08:08.023Z,96.80
2019-01-19T01:10:58.811Z,96.70
2019-01-19T01:14:04.105Z,97.00
2019-01-19T01:16:59.370Z,96.80
2019-01-19T01:20:14.110Z,96.70
2019-01-19T01:23:29.361Z,96.70
2019-01-19T01:26:29.626Z,96.70
2019-01-19T01:29:24.338Z,96.80
2019-01-19T01:32:06.519Z,97.00
2019-01-19T01:35:00.332Z,96.70
2019-01-19T01:37:37.820Z,97.10
2019-01-19T01:40:16.218Z,96.70
2019-01-19T01:43:25.122Z,96.70
2019-01-19T01:46:05.712Z,96.60
2019-01-19T01:49:14.846Z,96.60
2019-01-19T01:52:27.553Z,96.70
2019-01-19T01:55:28.444Z,96.60
2019-01-19T01:58:29.998Z,97.00
2019-01-19T02:01:21.585Z,96.60
2019-01-19T02:04:30.463Z,96.60
2019-01-19T02:07:48.262Z,96.70
2019-01-19T02:10:49.783Z,96.60
2019-01-19T02:13:46.884Z,96.60
2019-01-19T02:17:05.038Z,96.60
2019-01-19T02:19:52.350Z,96.60
2019-01-19T02:23:16.012Z,96.80
2019-01-19T02:26:28.063Z,96.80
2019-01-19T02:29:37.403Z,96.70
2019-01-19T02:32:34.981Z,96.70
2019-01-19T02:35:48.664Z,96.60
2019-01-19T02:39:09.250Z,96.70
2019-01-19T02:42:13.990Z,96.60
2019-01-19T02:45:38.175Z,96.70
2019-01-19T02:48:41.262Z,96.60
2019-01-19T02:51:14.787Z,96.60
2019-01-19T02:54:15.004Z,96.60
2019-01-19T02:57:22.503Z,96.60
2019-01-19T03:00:14.283Z,96.60
2019-01-19T03:02:53.166Z,96.60
2019-01-19T03:06:01.470Z,96.70
2019-01-19T03:09:07.796Z,96.60
2019-01-19T03:12:06.213Z,96.90
2019-01-19T03:14:54.890Z,96.70
2019-01-19T03:17:43.513Z,96.70
2019-01-19T03:20:33.132Z,96.60
2019-01-19T03:26:10.374Z,96.60
2019-01-19T03:29:05.776Z,96.50
2019-01-19T03:32:18.170Z,96.50
2019-01-19T03:35:14.607Z,96.40
2019-01-19T03:38:10.687Z,96.60
2019-01-19T03:40:56.675Z,96.40
2019-01-19T03:43:48.087Z,96.70
2019-01-19T03:46:50.404Z,96.50
2019-01-19T03:50:02.851Z,96.50
2019-01-19T03:52:50.891Z,96.40
2019-01-19T03:55:54.994Z,96.50
2019-01-19T03:58:46.574Z,96.40
2019-01-19T04:02:04.474Z,96.60
2019-01-19T04:04:42.002Z,96.40
2019-01-19T04:07:30.583Z,96.40
2019-01-19T04:10:36.138Z,96.80
2019-01-19T04:13:40.960Z,96.40
2019-01-19T04:16:33.524Z,96.50
2019-01-19T04:19:16.934Z,96.40
2019-01-19T04:22:35.674Z,96.50
2019-01-19T04:25:41.774Z,96.50
2019-01-19T04:28:09.807Z,96.80
2019-01-19T04:30:37.168Z,96.40
2019-01-19T04:33:04.499Z,96.40
2019-01-19T04:35:31.798Z,96.50
2019-01-19T04:37:59.110Z,96.40
2019-01-19T04:40:26.474Z,96.50
2019-01-19T04:42:53.880Z,96.60
2019-01-19T04:45:21.207Z,96.40
2019-01-19T04:47:48.539Z,96.50
2019-01-19T04:50:16.440Z,96.40
2019-01-19T04:52:43.734Z,96.40
2019-01-19T04:55:11.071Z,96.60
2019-01-19T04:57:38.370Z,96.60
2019-01-19T05:00:10.165Z,96.60
2019-01-19T05:02:37.510Z,96.50
2019-01-19T05:05:05.053Z,96.40
2019-01-19T05:07:32.372Z,96.40
2019-01-19T05:09:59.683Z,96.80
2019-01-19T05:12:26.991Z,96.50
2019-01-19T05:14:54.305Z,96.70
2019-01-19T05:17:21.630Z,96.60
2019-01-19T05:19:48.982Z,96.50
2019-01-19T05:22:16.345Z,96.80
2019-01-19T05:24:43.674Z,96.60
2019-01-19T05:27:10.991Z,96.40
2019-01-19T05:29:38.332Z,96.60
2019-01-19T05:32:05.719Z,96.60
2019-01-19T05:34:33.025Z,96.40
2019-01-19T05:37:00.410Z,96.50
2019-01-19T05:39:27.739Z,96.40
2019-01-19T05:41:55.059Z,96.40
2019-01-19T05:44:22.348Z,96.40
2019-01-19T05:46:49.675Z,96.40
2019-01-19T05:49:17.113Z,96.40
2019-01-19T05:51:44.507Z,96.40
2019-01-19T05:54:11.970Z,96.40
2019-01-19T05:56:39.344Z,96.40
2019-01-19T05:59:06.658Z,96.30
2019-01-19T06:01:34.087Z,96.40
2019-01-19T06:04:01.402Z,96.30
2019-01-19T06:06:28.794Z,96.30
2019-01-19T06:08:56.120Z,96.20
2019-01-19T06:11:23.461Z,96.30
2019-01-19T06:13:50.807Z,96.30
2019-01-19T06:16:18.191Z,96.30
2019-01-19T06:18:46.110Z,96.20
2019-01-19T06:21:14.251Z,96.10
2019-01-19T06:23:41.588Z,96.30
2019-01-19T06:26:08.907Z,96.40
2019-01-19T06:28:36.228Z,96.20
2019-01-19T06:31:23.818Z,96.20
2019-01-19T06:33:51.344Z,96.30
2019-01-19T06:36:18.644Z,96.10
2019-01-19T06:38:45.982Z,96.10
2019-01-19T06:41:13.377Z,96.20
2019-01-19T06:43:40.766Z,96.10
2019-01-19T06:46:08.440Z,96.10
2019-01-19T06:48:35.775Z,96.10
2019-01-19T06:51:03.175Z,96.10
2019-01-19T06:53:30.513Z,96.20
2019-01-19T06:55:57.815Z,96.20
2019-01-19T06:58:25.140Z,96.30
2019-01-19T07:00:52.519Z,96.10
2019-01-19T07:03:19.827Z,96.20
2019-01-19T07:05:47.134Z,95.80
2019-01-19T07:08:14.478Z,96.10
2019-01-19T07:10:41.990Z,96.00
2019-01-19T07:13:09.291Z,96.00
2019-01-19T07:15:36.737Z,96.00
2019-01-19T07:18:04.447Z,96.40
2019-01-19T07:20:31.800Z,96.00
2019-01-19T07:22:59.111Z,96.00
2019-01-19T07:25:26.444Z,96.10
2019-01-19T07:27:53.740Z,96.00
2019-01-19T07:30:40.615Z,96.00
2019-01-19T07:33:10.680Z,96.00
2019-01-19T07:35:38.086Z,95.90
2019-01-19T07:38:24.880Z,96.00
2019-01-19T07:40:53.725Z,95.90
2019-01-19T07:43:21.583Z,96.00
2019-01-19T07:45:49.038Z,96.30
2019-01-19T07:48:35.893Z,96.10
2019-01-19T07:51:03.379Z,95.80
2019-01-19T07:53:51.417Z,95.90
2019-01-19T07:56:19.812Z,95.70
2019-01-19T07:58:47.119Z,95.90
2019-01-19T08:01:34.052Z,95.90
2019-01-19T08:04:01.463Z,95.80
2019-01-19T08:06:28.768Z,95.90
2019-01-19T08:08:56.174Z,96.10
2019-01-19T08:11:42.983Z,96.00
2019-01-19T08:14:10.360Z,95.60
2019-01-19T08:16:37.703Z,95.70
2019-01-19T08:19:05.145Z,95.70
2019-01-19T08:21:32.576Z,95.90
2019-01-19T08:23:59.905Z,95.60
2019-01-19T08:26:27.258Z,95.60
2019-01-19T08:28:54.645Z,95.60
2019-01-19T08:31:21.979Z,96.00
2019-01-19T08:33:49.314Z,96.00
2019-01-19T08:36:16.979Z,95.80
2019-01-19T08:38:44.414Z,95.80
2019-01-19T08:41:11.853Z,95.80
2019-01-19T08:43:42.585Z,95.80
2019-01-19T08:46:10.007Z,95.80
2019-01-19T08:48:37.568Z,95.80
2019-01-19T08:51:04.898Z,95.80
2019-01-19T08:53:32.366Z,95.80
2019-01-19T08:56:19.232Z,95.90
2019-01-19T08:58:46.589Z,95.60
2019-01-19T09:01:13.891Z,95.80
2019-01-19T09:03:41.242Z,96.30
2019-01-19T09:06:10.973Z,95.80
2019-01-19T09:08:38.311Z,95.80
2019-01-19T09:11:05.683Z,95.70
2019-01-19T09:13:33.000Z,95.60
2019-01-19T09:16:21.446Z,95.60
2019-01-19T09:18:48.772Z,95.70
2019-01-19T09:21:16.136Z,95.80
2019-01-19T09:23:58.146Z,95.60
2019-01-19T09:26:25.566Z,96.00
2019-01-19T09:28:52.896Z,95.80
2019-01-19T09:31:20.352Z,95.70
2019-01-19T09:33:47.697Z,95.60
2019-01-19T09:36:18.178Z,95.70
2019-01-19T09:38:45.687Z,95.50
2019-01-19T09:41:13.320Z,95.60
2019-01-19T09:43:40.794Z,95.50
2019-01-19T09:46:08.260Z,95.70
2019-01-19T09:48:35.613Z,95.30
2019-01-19T09:51:03.011Z,95.50
2019-01-19T09:53:30.368Z,95.30
2019-01-19T09:55:57.715Z,95.50
2019-01-19T09:58:44.587Z,95.30
2019-01-19T10:01:13.456Z,95.30
2019-01-19T10:03:40.882Z,95.00
2019-01-19T10:06:08.310Z,95.20
2019-01-19T10:08:35.646Z,94.80
2019-01-19T10:11:03.494Z,95.10
2019-01-19T10:13:30.931Z,95.00
2019-01-19T10:15:58.410Z,94.70
2019-01-19T10:18:26.150Z,94.90
2019-01-19T10:20:53.768Z,94.80
2019-01-19T10:23:21.114Z,94.80
2019-01-19T10:25:48.451Z,94.50
2019-01-19T10:28:15.810Z,94.70
2019-01-19T10:30:43.164Z,94.30
2019-01-19T10:33:10.476Z,94.10
2019-01-19T10:35:38.203Z,93.60
2019-01-19T10:38:05.559Z,93.20
2019-01-19T10:40:32.891Z,93.70
2019-01-19T10:43:00.225Z,93.40
2019-01-19T10:45:27.552Z,93.40
2019-01-19T10:47:54.957Z,93.40
2019-01-19T10:50:22.330Z,92.70
2019-01-19T10:52:49.670Z,92.60
2019-01-19T10:55:18.167Z,92.40
2019-01-19T10:57:46.127Z,93.20
2019-01-19T11:00:16.767Z,91.90
2019-01-19T11:02:44.178Z,92.20
2019-01-19T11:05:12.693Z,92.10
2019-01-19T11:07:41.394Z,91.80
2019-01-19T11:10:11.784Z,92.00
2019-01-19T11:12:39.134Z,92.20
2019-01-19T11:15:08.506Z,92.50
2019-01-19T11:17:35.846Z,92.40
2019-01-19T11:20:10.000Z,92.40
2019-01-19T11:22:37.318Z,91.20
2019-01-19T11:25:04.741Z,91.90
2019-01-19T11:27:32.191Z,91.70
2019-01-19T11:29:59.595Z,91.60
2019-01-19T11:32:26.895Z,91.90
2019-01-19T11:34:54.230Z,91.60
2019-01-19T11:37:21.565Z,91.30
2019-01-19T11:39:48.886Z,91.80
2019-01-19T11:42:16.310Z,91.40
2019-01-19T11:44:43.629Z,91.10
2019-01-19T11:47:10.973Z,90.80
2019-01-19T11:49:38.299Z,91.20
2019-01-19T11:52:05.616Z,90.90
2019-01-19T11:54:33.040Z,90.60
2019-01-19T11:57:00.371Z,90.40
2019-01-19T11:59:27.825Z,90.10
2019-01-19T12:01:55.153Z,90.70
2019-01-19T12:04:22.542Z,90.70
2019-01-19T12:06:50.003Z,90.10
2019-01-19T12:09:17.307Z,90.60
2019-01-19T12:11:44.655Z,90.30
2019-01-19T12:14:11.980Z,90.30
2019-01-19T12:16:39.299Z,90.30
2019-01-19T12:19:06.666Z,90.70
2019-01-19T12:21:33.995Z,91.20
2019-01-19T12:24:01.308Z,91.10
2019-01-19T12:26:28.633Z,90.50
2019-01-19T12:28:55.993Z,90.70
2019-01-19T12:31:23.383Z,91.20
2019-01-19T12:33:50.729Z,90.30
2019-01-19T12:36:18.178Z,90.70
2019-01-19T12:38:45.490Z,90.30
2019-01-19T12:41:12.790Z,89.80
2019-01-19T12:43:40.119Z,90.60
2019-01-19T12:46:09.530Z,91.00
2019-01-19T12:48:36.864Z,90.70
2019-01-19T12:51:06.688Z,90.30
2019-01-19T12:53:34.042Z,89.50
2019-01-19T12:56:01.415Z,89.10
2019-01-19T12:58:28.763Z,90.20
2019-01-19T13:00:57.796Z,90.70
2019-01-19T13:03:25.195Z,90.60
2019-01-19T13:06:40.484Z,90.80
2019-01-19T13:09:20.441Z,90.20
2019-01-19T13:12:15.159Z,89.90
2019-01-19T13:15:20.454Z,90.10
2019-01-19T13:18:28.266Z,90.00
2019-01-19T13:21:52.544Z,90.30
2019-01-19T13:24:42.076Z,88.90
2019-01-19T13:27:22.792Z,87.80
2019-01-19T13:30:43.671Z,89.30
2019-01-19T13:34:04.283Z,88.40
2019-01-19T13:37:22.732Z,86.00
2019-01-19T13:40:36.952Z,86.60
2019-01-19T13:43:54.007Z,87.00
2019-01-19T13:47:00.322Z,87.90
2019-01-19T13:50:03.051Z,87.50
2019-01-19T13:53:21.731Z,86.30
2019-01-19T13:59:54.647Z,85.00
2019-01-19T14:03:15.925Z,85.50
2019-01-19T14:06:43.330Z,87.00
2019-01-19T14:09:53.134Z,83.80
2019-01-19T14:13:02.919Z,87.20
2019-01-19T14:16:08.052Z,87.20
2019-01-19T14:19:14.399Z,86.50
2019-01-19T14:22:24.722Z,85.40
2019-01-19T14:25:33.114Z,85.70
2019-01-19T14:28:38.994Z,84.50
2019-01-19T14:31:53.534Z,86.10
2019-01-19T14:34:58.471Z,84.60
2019-01-19T14:38:06.636Z,82.30
2019-01-19T14:41:08.291Z,86.10
2019-01-19T14:44:23.884Z,86.50
2019-01-19T14:47:36.467Z,85.90
2019-01-19T14:50:41.115Z,85.50
2019-01-19T14:53:47.852Z,84.60
2019-01-19T14:56:42.085Z,87.80
2019-01-19T14:59:33.177Z,87.80
2019-01-19T15:02:42.598Z,88.20
2019-01-19T15:05:53.028Z,87.20
2019-01-19T15:09:05.415Z,87.20
2019-01-19T15:12:02.343Z,88.20
2019-01-19T15:15:08.645Z,89.40
2019-01-19T15:18:21.621Z,88.30
2019-01-19T15:21:00.089Z,88.70
2019-01-19T15:24:01.003Z,87.90
2019-01-19T15:27:08.529Z,88.80
2019-01-19T15:30:16.068Z,89.30
2019-01-19T15:33:07.678Z,88.30
2019-01-19T15:36:16.550Z,90.10
2019-01-19T15:39:28.360Z,89.60
2019-01-19T15:42:32.101Z,90.10
2019-01-19T15:45:42.476Z,90.40
2019-01-19T15:48:50.063Z,90.00
2019-01-19T15:51:47.747Z,90.50
2019-01-19T15:55:02.542Z,90.00
2019-01-19T15:57:36.768Z,90.60
2019-01-19T16:01:01.041Z,90.60
2019-01-19T16:04:16.150Z,90.70
2019-01-19T16:07:40.456Z,90.70
2019-01-19T16:10:44.579Z,90.60
2019-01-19T16:13:30.202Z,90.80
2019-01-19T16:16:18.791Z,90.90
2019-01-19T16:19:26.068Z,91.10
2019-01-19T16:22:15.870Z,90.90
2019-01-19T16:25:21.273Z,91.10
2019-01-19T16:28:39.404Z,91.00
2019-01-19T16:31:45.712Z,91.00
2019-01-19T16:34:55.543Z,91.10
2019-01-19T16:37:38.621Z,91.10
2019-01-19T16:40:40.454Z,91.40
2019-01-19T16:43:16.527Z,91.30
2019-01-19T16:46:21.374Z,91.60
2019-01-19T16:52:16.451Z,91.30
2019-01-19T16:55:22.785Z,91.50
2019-01-19T16:58:23.374Z,91.50
2019-01-19T17:01:37.343Z,91.20
2019-01-19T17:04:52.632Z,91.60
2019-01-19T17:08:02.193Z,91.50
2019-01-19T17:11:07.820Z,91.70
2019-01-19T17:14:21.591Z,91.70
2019-01-19T17:17:19.078Z,91.70
2019-01-19T17:20:16.883Z,91.80
2019-01-19T17:23:44.374Z,91.70
2019-01-19T17:26:41.583Z,91.60
2019-01-19T17:33:31.646Z,91.80
2019-01-19T17:36:28.295Z,91.80
2019-01-19T17:39:40.250Z,92.00
2019-01-19T17:42:36.230Z,92.10
2019-01-19T17:46:07.767Z,92.00
2019-01-19T17:49:09.955Z,92.00
2019-01-19T17:52:27.425Z,91.90
2019-01-19T17:55:25.596Z,92.00
2019-01-19T17:58:31.959Z,92.00
2019-01-19T18:01:27.134Z,92.10
2019-01-19T18:04:42.345Z,92.20
2019-01-19T18:08:06.678Z,92.10
2019-01-19T18:11:06.149Z,92.10
2019-01-19T18:14:39.454Z,92.00
2019-01-19T18:18:03.272Z,92.30
2019-01-19T18:24:44.677Z,92.30
2019-01-19T18:27:45.485Z,92.20
2019-01-19T18:30:48.470Z,92.20
2019-01-19T18:33:42.108Z,92.30
2019-01-19T18:36:47.595Z,92.50
2019-01-19T18:39:40.050Z,92.40
2019-01-19T18:42:48.751Z,92.30
2019-01-19T18:45:45.734Z,92.30
2019-01-19T18:49:00.387Z,92.70
2019-01-19T18:52:04.291Z,92.40
2019-01-19T18:55:10.591Z,92.40
2019-01-19T18:57:55.009Z,92.60
2019-01-19T19:01:02.693Z,92.30
2019-01-19T19:04:09.199Z,92.30
2019-01-19T19:07:14.112Z,92.40
2019-01-19T19:10:26.019Z,92.30
2019-01-19T19:13:03.162Z,92.30
2019-01-19T19:16:24.678Z,92.40
2019-01-19T19:19:27.403Z,92.50
2019-01-19T19:22:14.389Z,92.40
2019-01-19T19:25:23.785Z,92.50
2019-01-19T19:28:27.839Z,92.70
2019-01-19T19:31:48.303Z,92.60
2019-01-19T19:34:43.807Z,92.40
2019-01-19T19:37:44.351Z,92.60
2019-01-19T19:40:40.639Z,92.50
2019-01-19T19:44:17.068Z,92.60
2019-01-19T19:47:19.531Z,92.60
2019-01-19T19:50:46.852Z,92.50
2019-01-19T19:53:14.334Z,92.50
2019-01-19T19:55:40.653Z,92.60
2019-01-19T19:58:08.008Z,92.40
2019-01-19T20:00:35.364Z,92.50
2019-01-19T20:03:02.931Z,92.80
2019-01-19T20:05:30.610Z,92.90
2019-01-19T20:07:57.968Z,92.80
2019-01-19T20:10:25.294Z,92.80
2019-01-19T20:12:53.919Z,92.60
2019-01-19T20:15:21.250Z,92.60
2019-01-19T20:17:48.612Z,92.80
2019-01-19T20:20:16.038Z,92.80
2019-01-19T20:22:43.359Z,93.00
2019-01-19T20:25:10.683Z,92.70
2019-01-19T20:27:38.042Z,92.70
2019-01-19T20:30:06.895Z,92.80
2019-01-19T20:32:34.268Z,93.00
2019-01-19T20:35:01.573Z,92.90
2019-01-19T20:37:30.471Z,92.70
2019-01-19T20:39:57.863Z,92.90
2019-01-19T20:42:25.341Z,92.80
2019-01-19T20:44:52.777Z,92.90
2019-01-19T20:47:20.090Z,92.90
2019-01-19T20:49:47.424Z,92.80
2019-01-19T20:52:14.803Z,92.80
2019-01-19T20:54:42.194Z,93.00
2019-01-19T20:57:09.780Z,92.80
2019-01-19T20:59:37.143Z,92.80
2019-01-19T21:02:04.571Z,92.90
2019-01-19T21:04:31.896Z,92.90
2019-01-19T21:06:59.355Z,92.80
2019-01-19T21:09:26.672Z,93.00
2019-01-19T21:11:53.989Z,92.90
2019-01-19T21:14:21.335Z,92.80
2019-01-19T21:16:48.746Z,92.80
2019-01-19T21:19:16.185Z,92.90
2019-01-19T21:21:43.588Z,93.00
2019-01-19T21:24:12.008Z,92.90
2019-01-19T21:26:39.502Z,92.80
2019-01-19T21:29:06.817Z,92.90
2019-01-19T21:31:34.118Z,93.00
2019-01-19T21:34:01.469Z,92.90
2019-01-19T21:36:28.778Z,93.00
2019-01-19T21:39:11.954Z,92.90
2019-01-19T21:41:39.355Z,92.70
2019-01-19T21:44:06.782Z,92.80
2019-01-19T21:46:34.246Z,92.90
2019-01-19T21:49:01.715Z,93.20
2019-01-19T21:51:29.112Z,92.90
2019-01-19T21:53:56.652Z,93.00
2019-01-19T21:56:24.030Z,93.10
2019-01-19T21:58:51.379Z,92.80
2019-01-19T22:01:18.717Z,93.10
2019-01-19T22:03:46.061Z,92.90
2019-01-19T22:06:13.456Z,92.90
2019-01-19T22:08:40.860Z,93.00
2019-01-19T22:11:08.266Z,92.80
2019-01-19T22:13:35.721Z,93.00
2019-01-19T22:16:06.252Z,92.90
2019-01-19T22:18:33.558Z,92.80
2019-01-19T22:21:00.916Z,93.10
2019-01-19T22:23:28.262Z,93.10
2019-01-19T22:25:55.619Z,93.00
2019-01-19T22:28:22.940Z,93.10
2019-01-19T22:30:50.285Z,92.90
2019-01-19T22:33:17.993Z,93.10
2019-01-19T22:35:45.337Z,93.10
2019-01-19T22:38:12.771Z,92.90
2019-01-19T22:40:40.110Z,92.90
2019-01-19T22:43:09.594Z,93.00
2019-01-19T22:45:36.942Z,92.90
2019-01-19T22:48:04.264Z,93.00
2019-01-19T22:50:31.568Z,92.90
2019-01-19T22:52:58.940Z,93.30
2019-01-19T22:55:26.351Z,92.90
2019-01-19T22:57:53.816Z,93.00
2019-01-19T23:00:28.668Z,93.10
2019-01-19T23:02:56.051Z,93.10
2019-01-19T23:05:23.358Z,93.00
2019-01-19T23:07:50.692Z,92.90
2019-01-19T23:10:18.015Z,93.10
2019-01-19T23:12:45.322Z,92.90
2019-01-19T23:15:13.902Z,93.10
2019-01-19T23:17:41.256Z,93.00
2019-01-19T23:20:08.613Z,92.90
2019-01-19T23:22:35.958Z,93.20
2019-01-19T23:25:23.048Z,93.10
2019-01-19T23:27:50.435Z,92.90
2019-01-19T23:30:17.818Z,93.10
2019-01-19T23:32:45.266Z,92.90
2019-01-19T23:35:12.601Z,92.90
2019-01-19T23:37:39.943Z,93.00
2019-01-19T23:40:07.382Z,93.20
2019-01-19T23:42:34.740Z,93.00
2019-01-19T23:45:02.070Z,92.80
2019-01-19T23:47:29.506Z,92.90
2019-01-19T23:49:56.823Z,92.80
2019-01-19T23:52:24.111Z,93.00
2019-01-19T23:54:51.481Z,93.00
2019-01-19T23:57:18.836Z,93.00
2019-01-19T23:59:46.183Z,92.90
